Time;durP1;ratioP1;P1;durP2;ratioP2;P2;SDS_P1;SDS_P2;PMS_P1;PMS_P2;Temp;Humidity;BMP_temperature;BMP_pressure;BME280_temperature;BME280_humidity;BME280_pressure;Samples;Min_cycle;Max_cycle;Signal;HPM_P1;HPM_P2
2023/03/24 00:00:10;;;;;;;4.40;2.38;;;;;;;10.82;100.00;99757.25;1035339;28;20359;-75
2023/03/24 00:00:41;;;;;;;5.10;2.47;;;;;;;10.79;100.00;99758.53;1032566;28;20349;-75
2023/03/24 00:01:14;;;;;;;5.88;2.20;;;;;;;10.83;100.00;99762.31;1028372;28;20321;-75
2023/03/24 00:01:46;;;;;;;4.53;3.47;;;;;;;10.86;100.00;99762.88;1031087;28;20796;-75
2023/03/24 00:02:18;;;;;;;3.45;2.33;;;;;;;10.88;100.00;99758.13;1034145;28;20305;-75
2023/03/24 00:02:50;;;;;;;4.80;2.63;;;;;;;10.84;100.00;99752.47;1035487;28;20686;-75
2023/03/24 00:03:24;;;;;;;4.40;2.78;;;;;;;10.87;100.00;99756.50;1037330;28;20296;-75
2023/03/24 00:03:57;;;;;;;9.75;2.60;;;;;;;10.82;100.00;99752.72;1040978;28;20375;-75
2023/03/24 00:04:29;;;;;;;4.47;2.42;;;;;;;10.83;100.00;99740.22;1043111;28;20420;-75
2023/03/24 00:05:03;;;;;;;8.45;2.88;;;;;;;10.86;100.00;99750.38;1040141;28;20302;-75
2023/03/24 00:05:34;;;;;;;4.55;3.00;;;;;;;10.79;100.00;99749.75;1043324;28;20291;-75
2023/03/24 00:06:08;;;;;;;5.43;3.05;;;;;;;10.80;100.00;99754.81;1042373;28;20681;-75
2023/03/24 00:06:40;;;;;;;3.40;2.33;;;;;;;10.88;100.00;99747.47;1035635;28;20388;-74
2023/03/24 00:07:13;;;;;;;3.35;2.20;;;;;;;10.87;100.00;99743.19;1039330;28;21120;-75
2023/03/24 00:07:46;;;;;;;7.50;3.25;;;;;;;10.87;100.00;99740.53;1039305;28;20291;-75
2023/03/24 00:08:17;;;;;;;5.10;2.40;;;;;;;10.80;100.00;99736.19;1027674;28;20294;-75
2023/03/24 00:08:49;;;;;;;4.30;2.70;;;;;;;10.81;100.00;99737.78;1031718;28;20380;-75
2023/03/24 00:09:21;;;;;;;9.40;3.00;;;;;;;10.79;100.00;99739.09;1035193;28;20300;-75
2023/03/24 00:09:52;;;;;;;4.80;2.92;;;;;;;10.84;100.00;99736.50;1036727;28;20520;-75
2023/03/24 00:10:29;;;;;;;3.17;2.10;;;;;;;10.80;100.00;99746.84;1047220;28;20649;-75
2023/03/24 00:11:03;;;;;;;3.00;2.17;;;;;;;10.83;100.00;99740.22;1038198;28;20354;-75
2023/03/24 00:11:35;;;;;;;4.25;2.67;;;;;;;10.83;100.00;99735.69;1034524;28;20311;-75
2023/03/24 00:12:08;;;;;;;8.73;2.60;;;;;;;10.81;100.00;99732.47;1036899;28;20823;-75
2023/03/24 00:12:41;;;;;;;12.43;2.97;;;;;;;10.83;100.00;99743.69;1033619;28;20297;-75
2023/03/24 00:13:13;;;;;;;8.27;3.28;;;;;;;10.84;100.00;99737.31;1039860;28;20339;-75
2023/03/24 00:13:46;;;;;;;6.82;2.75;;;;;;;10.86;100.00;99736.25;1045478;28;20661;-74
2023/03/24 00:14:17;;;;;;;7.75;2.88;;;;;;;10.82;100.00;99739.41;1043493;28;20717;-75
2023/03/24 00:14:53;;;;;;;7.28;2.65;;;;;;;10.80;100.00;99736.19;1043512;28;20649;-75
2023/03/24 00:15:44;;;;;;;4.53;2.72;;;;;;;10.83;100.00;99733.03;1042302;28;20397;-75
2023/03/24 00:16:18;;;;;;;4.53;2.20;;;;;;;10.82;100.00;99734.06;1039268;28;20322;-75
2023/03/24 00:16:51;;;;;;;3.10;2.38;;;;;;;10.83;100.00;99735.69;1035205;28;20303;-75
2023/03/24 00:17:24;;;;;;;8.13;2.67;;;;;;;10.84;100.00;99731.97;1035793;28;20652;-75
2023/03/24 00:17:56;;;;;;;5.13;2.88;;;;;;;10.83;100.00;99732.22;1035973;28;20308;-75
2023/03/24 00:18:29;;;;;;;4.30;2.47;;;;;;;10.82;100.00;99734.06;1040036;28;20298;-75
2023/03/24 00:19:00;;;;;;;10.05;3.13;;;;;;;10.87;100.00;99732.53;1041483;28;20296;-75
2023/03/24 00:19:32;;;;;;;5.60;2.50;;;;;;;10.88;100.00;99731.47;1043285;28;20303;-75
2023/03/24 00:20:09;;;;;;;5.80;2.55;;;;;;;10.86;100.00;99725.59;1043578;28;21921;-75
2023/03/24 00:20:41;;;;;;;7.07;2.97;;;;;;;10.87;100.00;99732.53;1041489;28;20810;-75
2023/03/24 00:21:14;;;;;;;6.90;3.25;;;;;;;10.81;100.00;99727.13;1038985;28;20887;-75
2023/03/24 00:21:46;;;;;;;8.75;3.00;;;;;;;10.84;100.00;99718.66;1039074;28;20303;-75
2023/03/24 00:22:20;;;;;;;6.63;3.08;;;;;;;10.82;100.00;99722.63;1038843;28;20790;-75
2023/03/24 00:22:57;;;;;;;7.55;3.33;;;;;;;10.81;100.00;99721.81;1041822;28;20302;-75
2023/03/24 00:23:31;;;;;;;5.68;3.47;;;;;;;10.82;100.00;99723.41;1043334;28;20302;-75
2023/03/24 00:24:03;;;;;;;6.85;2.58;;;;;;;10.83;100.00;99725.03;1041690;28;20292;-75
2023/03/24 00:24:36;;;;;;;4.47;3.00;;;;;;;10.82;100.00;99723.41;1045444;28;20693;-75
2023/03/24 00:25:09;;;;;;;6.65;3.15;;;;;;;10.82;100.00;99718.09;1043181;28;20291;-75
2023/03/24 00:25:41;;;;;;;5.43;2.28;;;;;;;10.83;100.00;99729.56;1039141;28;20307;-75
2023/03/24 00:26:14;;;;;;;7.53;3.00;;;;;;;10.82;100.00;99722.63;1039775;28;20307;-75
2023/03/24 00:26:47;;;;;;;7.22;2.85;;;;;;;10.85;100.00;99719.47;1038760;28;20319;-75
2023/03/24 00:27:19;;;;;;;5.72;3.33;;;;;;;10.87;100.00;99720.03;1035929;28;20296;-75
2023/03/24 00:27:52;;;;;;;5.50;3.40;;;;;;;10.92;100.00;99711.28;1039694;28;20300;-75
2023/03/24 00:28:24;;;;;;;10.90;3.20;;;;;;;10.90;100.00;99708.06;1039667;28;20805;-75
2023/03/24 00:28:56;;;;;;;7.97;3.58;;;;;;;10.91;100.00;99715.00;1042965;28;20669;-75
2023/03/24 00:29:28;;;;;;;7.07;3.13;;;;;;;10.90;100.00;99708.06;1043536;28;20353;-75
2023/03/24 00:30:02;;;;;;;7.40;2.95;;;;;;;10.89;100.00;99706.44;1043709;28;20310;-75
2023/03/24 00:30:34;;;;;;;7.40;2.90;;;;;;;10.83;100.00;99706.38;1044100;28;20299;-75
2023/03/24 00:31:07;;;;;;;3.53;2.90;;;;;;;10.81;100.00;99705.81;1044594;28;20311;-75
2023/03/24 00:31:40;;;;;;;8.13;2.80;;;;;;;10.87;100.00;99703.22;1041486;28;20332;-75
2023/03/24 00:32:11;;;;;;;4.43;2.60;;;;;;;10.87;100.00;99708.56;1039399;28;20314;-75
2023/03/24 00:32:45;;;;;;;6.22;2.78;;;;;;;10.81;100.00;99700.50;1039381;28;20295;-75
2023/03/24 00:33:17;;;;;;;5.93;2.58;;;;;;;10.81;100.00;99711.16;1038461;28;20316;-75
2023/03/24 00:33:52;;;;;;;6.70;2.80;;;;;;;10.82;100.00;99712.75;1039066;28;20353;-75
2023/03/24 00:34:24;;;;;;;5.72;3.17;;;;;;;10.78;100.00;99701.00;1038564;28;20667;-75
2023/03/24 00:34:56;;;;;;;6.90;4.05;;;;;;;10.82;100.00;99707.44;1039209;28;20310;-75
2023/03/24 00:35:28;;;;;;;3.22;2.92;;;;;;;10.86;100.00;99705.09;1042139;28;20295;-75
2023/03/24 00:36:01;;;;;;;4.28;3.13;;;;;;;10.86;100.00;99696.28;1039607;28;20291;-75
2023/03/24 00:36:34;;;;;;;5.47;2.72;;;;;;;10.87;100.00;99701.38;1038903;28;20304;-74
2023/03/24 00:37:05;;;;;;;6.72;3.30;;;;;;;10.84;100.00;99693.88;1038820;28;20347;-75
2023/03/24 00:37:38;;;;;;;4.30;2.90;;;;;;;10.85;100.00;99700.81;1037862;28;20360;-74
2023/03/24 00:38:11;;;;;;;5.07;2.60;;;;;;;10.89;100.00;99701.94;1041967;28;20307;-74
2023/03/24 00:38:42;;;;;;;5.50;2.78;;;;;;;10.88;100.00;99700.31;1039590;28;20300;-75
2023/03/24 00:39:17;;;;;;;7.72;3.63;;;;;;;10.89;100.00;99695.78;1040016;28;20303;-75
2023/03/24 00:39:49;;;;;;;6.63;3.22;;;;;;;10.90;100.00;99694.75;1038875;28;20453;-74
2023/03/24 00:40:21;;;;;;;6.40;3.53;;;;;;;10.89;100.00;99685.13;1038954;28;20387;-75
2023/03/24 00:40:53;;;;;;;4.38;3.25;;;;;;;10.87;100.00;99693.38;1031854;28;20305;-74
2023/03/24 00:41:26;;;;;;;5.53;2.88;;;;;;;10.88;100.00;99688.84;1035419;28;20384;-74
2023/03/24 00:42:00;;;;;;;4.40;2.97;;;;;;;10.86;100.00;99685.63;1038826;28;20296;-75
2023/03/24 00:42:34;;;;;;;5.22;2.92;;;;;;;10.84;100.00;99693.88;1039699;28;20789;-75
2023/03/24 00:43:05;;;;;;;6.43;3.00;;;;;;;10.83;100.00;99690.41;1040469;28;20303;-75
2023/03/24 00:43:37;;;;;;;9.48;3.75;;;;;;;10.85;100.00;99690.16;1041243;28;20284;-74
2023/03/24 00:44:16;;;;;;;7.63;3.15;;;;;;;10.88;100.00;99694.19;1035392;28;20841;-74
2023/03/24 00:44:52;;;;;;;3.47;2.92;;;;;;;10.86;100.00;99696.28;1036419;28;20632;-74
2023/03/24 00:45:24;;;;;;;8.00;3.17;;;;;;;10.88;100.00;99683.53;1038403;28;20037;-74
2023/03/24 00:46:00;;;;;;;3.63;2.50;;;;;;;10.83;100.00;99685.06;1038621;28;20338;-74
2023/03/24 00:46:33;;;;;;;8.52;3.00;;;;;;;10.83;100.00;99682.41;1039112;28;20307;-74
2023/03/24 00:47:05;;;;;;;5.47;3.50;;;;;;;10.83;100.00;99687.75;1039341;28;20308;-75
2023/03/24 00:47:37;;;;;;;12.07;3.35;;;;;;;10.83;100.00;99692.25;1040305;28;20311;-75
2023/03/24 00:48:10;;;;;;;4.30;3.20;;;;;;;10.90;100.00;99676.91;1039723;28;20292;-75
2023/03/24 00:48:41;;;;;;;7.32;2.95;;;;;;;10.89;100.00;99683.28;1043273;28;20673;-75
2023/03/24 00:49:14;;;;;;;3.58;2.65;;;;;;;10.80;100.00;99680.25;1042619;28;20299;-74
2023/03/24 00:49:46;;;;;;;6.53;3.67;;;;;;;10.86;100.00;99680.31;1044179;28;20354;-76
2023/03/24 00:50:19;;;;;;;7.57;3.03;;;;;;;10.85;100.00;99679.50;1042222;28;20381;-75
2023/03/24 00:50:51;;;;;;;5.55;3.28;;;;;;;10.88;100.00;99686.19;1043154;28;20292;-76
2023/03/24 00:51:23;;;;;;;5.78;3.20;;;;;;;10.86;100.00;99675.78;1038636;28;20306;-76
2023/03/24 00:51:57;;;;;;;4.25;2.92;;;;;;;10.90;100.00;99668.09;1040908;28;20685;-77
2023/03/24 00:52:32;;;;;;;4.22;3.00;;;;;;;10.84;100.00;99670.72;1035682;28;21028;-75
2023/03/24 00:53:05;;;;;;;4.43;3.42;;;;;;;10.84;100.00;99673.38;1040550;28;20328;-75
2023/03/24 00:53:42;;;;;;;7.57;3.28;;;;;;;10.90;100.00;99668.09;1040737;28;20288;-76
2023/03/24 00:54:15;;;;;;;4.93;2.72;;;;;;;10.90;100.00;99670.75;1040447;28;20296;-75
2023/03/24 00:54:48;;;;;;;5.30;3.08;;;;;;;10.89;100.00;99671.81;1043202;28;20314;-75
2023/03/24 00:55:21;;;;;;;4.10;2.90;;;;;;;10.88;100.00;99673.69;1038607;28;20363;-76
2023/03/24 00:55:54;;;;;;;7.60;3.40;;;;;;;10.92;100.00;99674.00;1041110;28;20292;-76
2023/03/24 00:56:28;;;;;;;4.20;2.95;;;;;;;10.93;100.00;99675.59;1038777;28;20292;-74
2023/03/24 00:57:01;;;;;;;5.85;4.03;;;;;;;10.92;100.00;99682.78;1035386;28;20797;-74
2023/03/24 00:57:33;;;;;;;6.95;3.80;;;;;;;10.85;100.00;99671.50;1034573;28;20327;-74
2023/03/24 00:58:05;;;;;;;5.05;3.22;;;;;;;10.86;100.00;99667.00;1035924;28;20300;-74
2023/03/24 00:58:37;;;;;;;5.05;3.17;;;;;;;10.88;100.00;99656.88;1039480;28;20295;-75
2023/03/24 00:59:09;;;;;;;5.22;3.35;;;;;;;10.89;100.00;99653.16;1043055;28;20291;-74
2023/03/24 00:59:47;;;;;;;5.93;3.72;;;;;;;10.91;100.00;99657.19;1043554;28;20295;-75
2023/03/24 01:00:22;;;;;;;5.90;3.20;;;;;;;10.89;100.00;99653.16;1041898;28;20288;-74
2023/03/24 01:00:57;;;;;;;4.25;2.85;;;;;;;10.91;100.00;99661.72;1041402;28;20393;-74
2023/03/24 01:01:35;;;;;;;6.85;3.15;;;;;;;10.90;100.00;99665.44;1034233;28;20297;-74
2023/03/24 01:02:11;;;;;;;6.10;3.15;;;;;;;10.90;100.00;99674.22;1034864;28;20336;-74
2023/03/24 01:02:47;;;;;;;5.20;3.58;;;;;;;10.90;100.00;99671.56;1028859;28;20493;-74
2023/03/24 01:03:20;;;;;;;4.07;3.22;;;;;;;10.88;100.00;99670.22;1035716;28;20301;-74
2023/03/24 01:03:53;;;;;;;4.85;2.90;;;;;;;10.82;100.00;99670.16;1030577;28;20305;-74
2023/03/24 01:04:25;;;;;;;8.52;3.63;;;;;;;10.88;100.00;99668.34;1033206;28;20922;-74
2023/03/24 01:04:58;;;;;;;6.22;3.58;;;;;;;10.90;100.00;99660.09;1035063;28;20300;-74
2023/03/24 01:05:30;;;;;;;7.72;2.78;;;;;;;10.88;100.00;99657.69;1033403;28;20320;-74
2023/03/24 01:06:02;;;;;;;6.72;3.80;;;;;;;10.91;100.00;99659.06;1030582;28;20665;-75
2023/03/24 01:06:36;;;;;;;6.05;3.88;;;;;;;10.91;100.00;99651.88;1027405;28;20305;-75
2023/03/24 01:07:09;;;;;;;8.80;3.45;;;;;;;10.92;100.00;99658.00;1027644;28;20306;-75
2023/03/24 01:07:42;;;;;;;5.72;3.72;;;;;;;10.91;100.00;99662.53;1029654;28;20309;-74
2023/03/24 01:08:19;;;;;;;5.35;4.05;;;;;;;10.94;100.00;99661.22;1033979;28;20402;-74
2023/03/24 01:08:52;;;;;;;5.65;3.38;;;;;;;10.93;100.00;99659.59;1033167;28;20301;-75
2023/03/24 01:09:24;;;;;;;5.72;3.35;;;;;;;10.91;100.00;99656.38;1039223;28;20852;-74
2023/03/24 01:09:57;;;;;;;5.25;2.78;;;;;;;10.89;100.00;99658.50;1036561;28;20300;-74
2023/03/24 01:10:33;;;;;;;4.18;2.92;;;;;;;10.91;100.00;99656.38;1036096;28;20301;-75
2023/03/24 01:11:05;;;;;;;7.35;3.33;;;;;;;10.86;100.00;99659.00;1040423;28;20300;-74
2023/03/24 01:11:38;;;;;;;6.05;3.60;;;;;;;10.93;100.00;99652.41;1037534;28;20309;-75
2023/03/24 01:12:11;;;;;;;6.80;3.03;;;;;;;10.92;100.00;99658.00;1034291;28;20888;-75
2023/03/24 01:12:42;;;;;;;4.88;2.95;;;;;;;10.92;100.00;99637.50;1037318;28;20312;-74
2023/03/24 01:13:15;;;;;;;6.55;3.60;;;;;;;10.98;100.00;99651.72;1035689;28;20297;-75
2023/03/24 01:13:48;;;;;;;4.22;3.22;;;;;;;10.90;100.00;99649.44;1032045;28;20297;-74
2023/03/24 01:14:19;;;;;;;4.93;3.97;;;;;;;10.89;100.00;99642.50;1035698;28;20703;-74
2023/03/24 01:14:53;;;;;;;4.80;3.00;;;;;;;10.95;100.00;99652.19;1034595;28;20314;-74
2023/03/24 01:15:28;;;;;;;8.13;3.95;;;;;;;10.95;100.00;99655.66;1031476;28;20309;-74
2023/03/24 01:16:00;;;;;;;5.05;3.22;;;;;;;10.99;100.00;99648.00;1031503;28;20677;-75
2023/03/24 01:16:32;;;;;;;8.57;3.50;;;;;;;10.96;100.00;99654.63;1035728;28;20301;-75
2023/03/24 01:17:05;;;;;;;4.13;3.55;;;;;;;10.96;100.00;99648.50;1040124;28;20334;-75
2023/03/24 01:17:36;;;;;;;3.83;3.28;;;;;;;10.97;100.00;99636.78;1038420;28;20300;-75
2023/03/24 01:18:08;;;;;;;3.75;3.35;;;;;;;10.97;100.00;99639.44;1043411;28;20307;-75
2023/03/24 01:18:41;;;;;;;5.95;3.33;;;;;;;10.96;100.00;99638.63;1043186;28;20307;-75
2023/03/24 01:19:13;;;;;;;5.88;2.95;;;;;;;11.01;100.00;99643.22;1045470;28;20290;-74
2023/03/24 01:19:44;;;;;;;4.50;3.25;;;;;;;10.99;100.00;99638.13;1043442;28;20740;-75
2023/03/24 01:20:16;;;;;;;4.70;3.33;;;;;;;11.01;100.00;99629.91;1043059;28;20291;-75
2023/03/24 01:20:48;;;;;;;4.80;3.20;;;;;;;10.94;100.00;99634.56;1042875;28;20299;-74
2023/03/24 01:21:20;;;;;;;5.43;2.97;;;;;;;10.97;100.00;99639.44;1040324;28;21041;-75
2023/03/24 01:21:53;;;;;;;3.75;2.70;;;;;;;10.97;100.00;99634.13;1043046;28;20685;-75
2023/03/24 01:22:29;;;;;;;5.82;3.05;;;;;;;10.95;100.00;99628.19;1038549;28;20300;-75
2023/03/24 01:23:03;;;;;;;5.40;3.25;;;;;;;10.95;100.00;99631.66;1038641;28;20311;-75
2023/03/24 01:23:36;;;;;;;5.70;3.13;;;;;;;10.96;100.00;99635.97;1040460;28;20304;-75
2023/03/24 01:24:08;;;;;;;3.88;2.80;;;;;;;11.01;100.00;99632.56;1038759;28;20378;-75
2023/03/24 01:24:42;;;;;;;5.53;3.63;;;;;;;11.01;100.00;99635.22;1038948;28;20419;-75
2023/03/24 01:25:17;;;;;;;4.07;3.35;;;;;;;11.01;100.00;99624.56;1040071;28;20292;-75
2023/03/24 01:25:50;;;;;;;6.07;3.15;;;;;;;11.01;100.00;99619.22;1039813;28;20679;-75
2023/03/24 01:26:22;;;;;;;5.07;3.50;;;;;;;11.02;100.00;99620.84;1039017;28;20288;-75
2023/03/24 01:26:53;;;;;;;5.63;3.53;;;;;;;11.04;100.00;99618.72;1038883;28;20296;-75
2023/03/24 01:27:26;;;;;;;7.38;3.67;;;;;;;11.02;100.00;99621.66;1039834;28;20300;-75
2023/03/24 01:27:58;;;;;;;3.47;2.72;;;;;;;10.94;100.00;99623.91;1042537;28;20292;-75
2023/03/24 01:28:30;;;;;;;5.47;3.10;;;;;;;10.97;100.00;99616.25;1043006;28;20313;-75
2023/03/24 01:29:02;;;;;;;6.00;3.65;;;;;;;10.97;100.00;99620.78;1043365;28;20307;-75
2023/03/24 01:29:33;;;;;;;4.97;3.22;;;;;;;10.97;100.00;99631.44;1043017;28;20303;-75
2023/03/24 01:30:06;;;;;;;5.07;3.22;;;;;;;10.97;100.00;99621.59;1043348;28;20649;-75
2023/03/24 01:30:38;;;;;;;4.32;3.33;;;;;;;10.97;100.00;99620.78;1038766;28;20315;-75
2023/03/24 01:31:10;;;;;;;5.93;3.00;;;;;;;11.02;100.00;99615.50;1041469;28;20291;-75
2023/03/24 01:31:42;;;;;;;5.60;3.30;;;;;;;10.98;100.00;99625.06;1035571;28;20687;-75
2023/03/24 01:32:14;;;;;;;4.35;3.38;;;;;;;11.02;100.00;99620.84;1038850;28;20852;-75
2023/03/24 01:32:46;;;;;;;5.95;3.33;;;;;;;10.94;100.00;99629.25;1034849;28;20296;-75
2023/03/24 01:33:18;;;;;;;3.30;2.97;;;;;;;11.00;100.00;99613.09;1033384;28;20297;-75
2023/03/24 01:33:50;;;;;;;3.60;2.67;;;;;;;11.01;100.00;99609.38;1031236;28;20796;-75
2023/03/24 01:34:22;;;;;;;5.95;3.30;;;;;;;11.02;100.00;99610.19;1035534;28;20304;-75
2023/03/24 01:34:53;;;;;;;3.33;3.00;;;;;;;10.98;100.00;99615.22;1042725;28;20463;-75
2023/03/24 01:35:25;;;;;;;5.53;3.90;;;;;;;11.02;100.00;99610.19;1043319;28;20294;-75
2023/03/24 01:35:59;;;;;;;4.63;3.70;;;;;;;11.02;100.00;99613.66;1043378;28;20363;-75
2023/03/24 01:36:31;;;;;;;3.78;3.25;;;;;;;11.05;100.00;99615.00;1046235;28;20882;-74
2023/03/24 01:37:03;;;;;;;6.15;3.67;;;;;;;11.08;100.00;99617.19;1045566;28;20290;-75
2023/03/24 01:37:35;;;;;;;4.30;3.28;;;;;;;11.03;100.00;99607.28;1042625;28;20310;-75
2023/03/24 01:38:09;;;;;;;7.20;2.95;;;;;;;11.05;100.00;99609.69;1038850;28;20362;-74
2023/03/24 01:38:41;;;;;;;3.35;3.05;;;;;;;11.09;100.00;99600.13;1034623;28;20832;-74
2023/03/24 01:39:12;;;;;;;4.00;3.55;;;;;;;11.07;100.00;99602.25;1034969;28;20309;-75
2023/03/24 01:39:44;;;;;;;4.75;3.55;;;;;;;11.09;100.00;99605.47;1030313;28;20305;-75
2023/03/24 01:40:23;;;;;;;4.80;3.42;;;;;;;11.08;100.00;99607.31;1031265;28;20807;-75
2023/03/24 01:40:55;;;;;;;4.53;3.10;;;;;;;11.09;100.00;99602.78;1030781;28;20368;-75
2023/03/24 01:41:32;;;;;;;7.07;3.22;;;;;;;11.08;100.00;99603.84;1028194;28;20313;-75
2023/03/24 01:42:04;;;;;;;4.70;3.47;;;;;;;11.06;100.00;99595.31;1033134;28;20633;-75
2023/03/24 01:42:38;;;;;;;3.25;2.92;;;;;;;11.08;100.00;99607.31;1031936;28;20313;-75
2023/03/24 01:43:22;;;;;;;6.95;3.78;;;;;;;11.12;100.00;99604.97;1031953;28;20310;-75
2023/03/24 01:43:54;;;;;;;7.30;2.97;;;;;;;11.06;100.00;99596.09;1032579;28;20672;-75
2023/03/24 01:44:33;;;;;;;4.63;3.15;;;;;;;11.13;100.00;99601.25;1034821;28;20320;-75
2023/03/24 01:45:39;;;;;;;6.05;3.25;;;;;;;11.09;100.00;99600.13;1041947;28;20272;-75
2023/03/24 01:46:20;;;;;;;5.57;4.35;;;;;;;11.08;100.00;99606.53;1043552;28;20693;-75
2023/03/24 01:46:54;;;;;;;5.95;3.33;;;;;;;11.11;100.00;99598.03;1038733;28;20816;-75
2023/03/24 01:47:26;;;;;;;4.63;2.95;;;;;;;11.09;100.00;99589.47;1039274;28;20307;-75
2023/03/24 01:47:58;;;;;;;6.75;3.10;;;;;;;11.03;100.00;99593.16;1034574;28;20671;-75
2023/03/24 01:48:42;;;;;;;5.40;3.10;;;;;;;11.07;100.00;99581.72;1031912;28;21145;-75
2023/03/24 01:49:13;;;;;;;8.45;3.28;;;;;;;11.09;100.00;99590.28;1039060;28;20292;-75
2023/03/24 01:49:56;;;;;;;3.42;3.10;;;;;;;11.08;100.00;99594.00;1032898;28;20735;-75
2023/03/24 01:50:28;;;;;;;3.95;2.90;;;;;;;11.10;100.00;99591.88;1033477;28;20304;-75
2023/03/24 01:51:05;;;;;;;4.03;3.15;;;;;;;11.11;100.00;99592.69;1034911;28;20545;-75
2023/03/24 01:51:40;;;;;;;4.88;3.35;;;;;;;11.14;100.00;99581.53;1043926;28;20885;-74
2023/03/24 01:52:23;;;;;;;7.10;4.45;;;;;;;11.13;100.00;99579.91;1050701;28;20326;-75
2023/03/24 01:52:55;;;;;;;3.35;2.88;;;;;;;11.12;100.00;99578.31;1046682;28;20398;-75
2023/03/24 01:53:27;;;;;;;5.15;3.33;;;;;;;11.07;100.00;99580.94;1040537;28;20307;-75
2023/03/24 01:54:04;;;;;;;4.70;3.15;;;;;;;11.11;100.00;99576.69;1038962;28;20349;-75
2023/03/24 01:54:43;;;;;;;4.05;3.28;;;;;;;11.13;100.00;99579.91;1030608;28;20807;-74
2023/03/24 01:55:18;;;;;;;3.17;2.97;;;;;;;11.09;100.00;99578.81;1030814;28;20301;-75
2023/03/24 01:55:51;;;;;;;4.97;2.78;;;;;;;11.10;100.00;99577.75;1023144;28;20306;-75
2023/03/24 01:56:28;;;;;;;6.40;3.25;;;;;;;11.07;100.00;99573.72;1030149;28;20324;-75
2023/03/24 01:57:07;;;;;;;3.20;2.90;;;;;;;11.09;100.00;99581.47;1031834;28;20844;-75
2023/03/24 01:57:44;;;;;;;4.47;3.53;;;;;;;11.13;100.00;99577.25;1037389;28;20331;-75
2023/03/24 01:58:17;;;;;;;3.70;2.80;;;;;;;11.13;100.00;99574.59;1035213;28;20305;-75
2023/03/24 01:59:05;;;;;;;8.23;3.13;;;;;;;11.15;100.00;99562.63;1035515;28;20300;-75
2023/03/24 01:59:54;;;;;;;4.95;3.08;;;;;;;11.15;100.00;99567.94;1031679;28;20380;-75
2023/03/24 02:00:45;;;;;;;3.47;3.17;;;;;;;11.13;100.00;99558.59;1037668;28;20702;-75
2023/03/24 02:01:40;;;;;;;4.72;2.88;;;;;;;11.13;100.00;99574.59;1040741;28;20300;-75
2023/03/24 02:02:34;;;;;;;7.30;3.22;;;;;;;11.11;100.00;99572.19;1045015;28;20311;-75
2023/03/24 02:03:13;;;;;;;4.88;3.78;;;;;;;11.11;100.00;99564.19;1035723;28;20350;-75
2023/03/24 02:03:52;;;;;;;6.65;3.15;;;;;;;11.10;100.00;99564.44;1026819;28;20777;-75
2023/03/24 02:04:24;;;;;;;4.93;2.97;;;;;;;11.08;100.00;99566.53;1033471;28;20304;-75
2023/03/24 02:05:02;;;;;;;3.47;3.08;;;;;;;11.14;100.00;99565.53;1031504;28;20397;-75
2023/03/24 02:05:46;;;;;;;3.20;2.58;;;;;;;11.12;100.00;99568.44;1036666;28;20824;-75
2023/03/24 02:06:19;;;;;;;4.30;3.15;;;;;;;11.13;100.00;99569.25;1029477;28;20404;-75
2023/03/24 02:06:52;;;;;;;3.15;2.85;;;;;;;11.12;100.00;99557.00;1027420;28;20310;-75
2023/03/24 02:07:29;;;;;;;2.97;2.67;;;;;;;11.18;100.00;99549.84;1031354;28;20345;-75
2023/03/24 02:08:16;;;;;;;2.72;2.53;;;;;;;11.18;100.00;99555.97;1035179;28;20397;-75
2023/03/24 02:08:52;;;;;;;4.90;3.20;;;;;;;11.17;100.00;99554.38;1038166;28;20307;-75
2023/03/24 02:09:24;;;;;;;4.45;3.60;;;;;;;11.19;100.00;99554.91;1039805;28;20304;-75
2023/03/24 02:09:56;;;;;;;3.72;2.70;;;;;;;11.19;100.00;99557.59;1039526;28;20307;-75
2023/03/24 02:10:30;;;;;;;2.67;2.47;;;;;;;11.12;100.00;99557.00;1036319;28;20441;-75
2023/03/24 02:11:02;;;;;;;4.93;2.88;;;;;;;11.17;100.00;99559.69;1036605;28;20830;-75
2023/03/24 02:11:44;;;;;;;3.47;3.15;;;;;;;11.17;100.00;99553.56;1030924;28;20316;-75
2023/03/24 02:12:17;;;;;;;4.05;2.28;;;;;;;11.19;100.00;99551.44;1029203;28;20318;-75
2023/03/24 02:12:49;;;;;;;4.07;3.17;;;;;;;11.20;100.00;99550.41;1029191;28;20846;-75
2023/03/24 02:13:22;;;;;;;4.53;3.20;;;;;;;11.16;100.00;99550.09;1027891;28;20313;-74
2023/03/24 02:13:54;;;;;;;3.40;2.58;;;;;;;11.18;100.00;99542.66;1030844;28;20301;-75
2023/03/24 02:14:26;;;;;;;4.90;2.95;;;;;;;11.10;100.00;99559.91;1031462;28;20352;-75
2023/03/24 02:14:59;;;;;;;3.22;2.13;;;;;;;11.17;100.00;99543.72;1035697;28;20304;-75
2023/03/24 02:15:35;;;;;;;4.20;2.35;;;;;;;11.16;100.00;99544.78;1036622;28;20321;-75
2023/03/24 02:16:37;;;;;;;5.30;2.83;;;;;;;11.19;100.00;99544.25;1044313;28;20295;-75
2023/03/24 02:17:24;;;;;;;5.95;2.78;;;;;;;11.23;100.00;99540.06;1043564;28;20318;-75
2023/03/24 02:18:21;;;;;;;3.50;3.20;;;;;;;11.27;100.00;99543.03;1047729;28;20295;-75
2023/03/24 02:19:15;;;;;;;4.90;2.78;;;;;;;11.22;100.00;99540.28;1039813;28;20300;-75
2023/03/24 02:20:10;;;;;;;3.30;2.60;;;;;;;11.24;100.00;99540.88;1035189;28;20301;-76
2023/03/24 02:20:53;;;;;;;3.03;2.38;;;;;;;11.19;100.00;99549.59;1037539;28;20555;-76
2023/03/24 02:21:38;;;;;;;2.83;2.60;;;;;;;11.21;100.00;99544.81;1039795;28;20307;-75
2023/03/24 02:22:22;;;;;;;3.45;2.50;;;;;;;11.21;100.00;99542.16;1043521;28;20298;-76
2023/03/24 02:23:13;;;;;;;5.10;2.53;;;;;;;11.16;100.00;99534.09;1043844;28;20299;-76
2023/03/24 02:24:17;;;;;;;3.47;2.58;;;;;;;11.21;100.00;99523.50;1042602;28;20421;-76
2023/03/24 02:25:16;;;;;;;2.70;2.50;;;;;;;11.17;100.00;99538.38;1039453;28;20304;-75
2023/03/24 02:25:55;;;;;;;3.00;2.80;;;;;;;11.22;100.00;99534.94;1042459;28;20303;-76
2023/03/24 02:27:05;;;;;;;2.20;2.00;;;;;;;11.16;100.00;99536.78;1039662;28;20644;-75
2023/03/24 02:27:42;;;;;;;5.88;4.15;;;;;;;11.16;100.00;99528.78;1046034;28;20309;-76
2023/03/24 02:28:19;;;;;;;2.72;2.53;;;;;;;11.21;100.00;99533.34;1043108;28;20292;-75
2023/03/24 02:29:16;;;;;;;3.45;2.45;;;;;;;11.21;100.00;99523.50;1039758;28;20308;-75
2023/03/24 02:30:00;;;;;;;3.35;2.35;;;;;;;11.19;100.00;99525.59;1038868;28;20414;-75
2023/03/24 02:30:41;;;;;;;4.68;3.03;;;;;;;11.20;100.00;99529.06;1040932;28;20551;-76
2023/03/24 02:31:28;;;;;;;3.88;2.70;;;;;;;11.20;100.00;99523.75;1040339;28;20485;-75
2023/03/24 02:32:18;;;;;;;2.70;2.50;;;;;;;11.17;100.00;99521.59;1041235;28;20060;-76
2023/03/24 02:33:12;;;;;;;6.47;2.50;;;;;;;11.18;100.00;99529.31;1042850;28;20302;-76
2023/03/24 02:34:21;;;;;;;3.10;2.90;;;;;;;11.16;100.00;99531.44;1041626;28;20304;-75
2023/03/24 02:35:29;;;;;;;3.25;2.40;;;;;;;11.19;100.00;99520.28;1039086;28;20299;-76
2023/03/24 02:36:04;;;;;;;7.75;2.90;;;;;;;11.15;100.00;99511.97;1039354;28;20316;-76
2023/03/24 02:37:01;;;;;;;6.50;3.00;;;;;;;11.23;100.00;99523.22;1040717;28;20407;-75
2023/03/24 02:37:38;;;;;;;3.15;2.95;;;;;;;11.11;100.00;99523.41;1040627;28;20291;-75
2023/03/24 02:38:25;;;;;;;4.38;2.78;;;;;;;11.12;100.00;99530.34;1040432;28;20303;-76
2023/03/24 02:39:17;;;;;;;2.65;2.42;;;;;;;11.14;100.00;99522.91;1038719;28;20303;-75
2023/03/24 02:40:11;;;;;;;4.20;2.90;;;;;;;11.18;100.00;99510.66;1034485;28;20308;-75
2023/03/24 02:40:48;;;;;;;3.88;2.78;;;;;;;11.13;100.00;99507.97;1035959;28;20336;-75
2023/03/24 02:42:01;;;;;;;3.20;2.90;;;;;;;11.18;100.00;99518.66;1042301;28;20339;-75
2023/03/24 02:42:35;;;;;;;3.53;2.45;;;;;;;11.14;100.00;99513.03;1037824;28;20702;-75
2023/03/24 02:43:30;;;;;;;3.75;2.97;;;;;;;11.15;100.00;99511.19;1032118;28;20836;-75
2023/03/24 02:44:09;;;;;;;3.13;2.65;;;;;;;11.17;100.00;99511.72;1029685;28;20309;-75
2023/03/24 02:44:55;;;;;;;3.83;3.25;;;;;;;11.18;100.00;99510.66;1033869;28;20386;-75
2023/03/24 02:45:35;;;;;;;2.83;2.63;;;;;;;11.17;100.00;99506.41;1038018;28;20304;-75
2023/03/24 02:46:12;;;;;;;3.75;2.50;;;;;;;11.17;100.00;99501.06;1042138;28;20300;-75
2023/03/24 02:46:50;;;;;;;6.47;3.85;;;;;;;11.14;100.00;99497.06;1041525;28;20845;-74
2023/03/24 02:47:28;;;;;;;4.28;3.88;;;;;;;11.14;100.00;99501.56;1041136;28;20783;-75
2023/03/24 02:48:18;;;;;;;2.65;2.45;;;;;;;11.20;100.00;99502.41;1035092;28;20676;-75